sensor_id;sensor_type;location;lat;lon;timestamp;P1;durP1;ratioP1;P2;durP2;ratioP2
2299;SDS011;1158;48.750;9.078;2023-02-21T00:02:29;4.27;;;2.20;;
2299;SDS011;1158;48.750;9.078;2023-02-21T00:05:13;3.63;;;2.13;;
2299;SDS011;1158;48.750;9.078;2023-02-21T00:07:57;4.00;;;2.23;;
2299;SDS011;1158;48.750;9.078;2023-02-21T00:10:41;3.97;;;2.53;;
2299;SDS011;1158;48.750;9.078;2023-02-21T00:13:27;10.03;;;2.47;;
2299;SDS011;1158;48.750;9.078;2023-02-21T00:16:13;4.93;;;2.70;;
2299;SDS011;1158;48.750;9.078;2023-02-21T00:18:58;5.07;;;2.50;;
2299;SDS011;1158;48.750;9.078;2023-02-21T00:21:42;4.87;;;3.00;;
2299;SDS011;1158;48.750;9.078;2023-02-21T00:24:26;5.43;;;2.60;;
2299;SDS011;1158;48.750;9.078;2023-02-21T00:27:10;5.10;;;2.80;;
2299;SDS011;1158;48.750;9.078;2023-02-21T00:29:56;5.40;;;3.20;;
2299;SDS011;1158;48.750;9.078;2023-02-21T00:32:40;5.57;;;3.33;;
2299;SDS011;1158;48.750;9.078;2023-02-21T00:35:24;8.77;;;3.10;;
2299;SDS011;1158;48.750;9.078;2023-02-21T00:38:09;5.30;;;2.37;;
2299;SDS011;1158;48.750;9.078;2023-02-21T00:40:54;4.43;;;2.17;;
2299;SDS011;1158;48.750;9.078;2023-02-21T00:43:38;5.17;;;2.40;;
2299;SDS011;1158;48.750;9.078;2023-02-21T00:46:24;6.10;;;2.80;;
2299;SDS011;1158;48.750;9.078;2023-02-21T00:49:08;4.10;;;2.27;;
2299;SDS011;1158;48.750;9.078;2023-02-21T00:51:52;5.23;;;2.77;;
2299;SDS011;1158;48.750;9.078;2023-02-21T00:54:36;6.70;;;3.03;;
2299;SDS011;1158;48.750;9.078;2023-02-21T00:57:21;4.60;;;2.60;;
2299;SDS011;1158;48.750;9.078;2023-02-21T01:00:06;3.17;;;2.30;;
2299;SDS011;1158;48.750;9.078;2023-02-21T01:02:53;6.17;;;2.63;;
2299;SDS011;1158;48.750;9.078;2023-02-21T01:05:38;4.30;;;2.50;;
2299;SDS011;1158;48.750;9.078;2023-02-21T01:08:22;4.17;;;2.60;;
2299;SDS011;1158;48.750;9.078;2023-02-21T01:11:06;5.10;;;2.70;;
2299;SDS011;1158;48.750;9.078;2023-02-21T01:13:56;5.90;;;2.67;;
2299;SDS011;1158;48.750;9.078;2023-02-21T01:16:40;6.17;;;3.07;;
2299;SDS011;1158;48.750;9.078;2023-02-21T01:19:25;6.63;;;2.70;;
2299;SDS011;1158;48.750;9.078;2023-02-21T01:22:10;8.20;;;3.60;;
2299;SDS011;1158;48.750;9.078;2023-02-21T01:24:54;6.90;;;3.10;;
2299;SDS011;1158;48.750;9.078;2023-02-21T01:27:38;9.67;;;2.83;;
2299;SDS011;1158;48.750;9.078;2023-02-21T01:30:22;7.37;;;3.40;;
2299;SDS011;1158;48.750;9.078;2023-02-21T01:33:06;5.80;;;2.50;;
2299;SDS011;1158;48.750;9.078;2023-02-21T01:35:52;9.27;;;3.20;;
2299;SDS011;1158;48.750;9.078;2023-02-21T01:38:36;4.80;;;2.97;;
2299;SDS011;1158;48.750;9.078;2023-02-21T01:41:20;9.17;;;3.60;;
2299;SDS011;1158;48.750;9.078;2023-02-21T01:44:05;12.37;;;3.07;;
2299;SDS011;1158;48.750;9.078;2023-02-21T01:47:09;8.97;;;3.00;;
2299;SDS011;1158;48.750;9.078;2023-02-21T01:49:54;6.77;;;3.27;;
2299;SDS011;1158;48.750;9.078;2023-02-21T01:52:39;6.50;;;3.30;;
2299;SDS011;1158;48.750;9.078;2023-02-21T01:55:23;5.97;;;2.80;;
2299;SDS011;1158;48.750;9.078;2023-02-21T01:58:08;10.37;;;2.93;;
2299;SDS011;1158;48.750;9.078;2023-02-21T02:00:52;4.93;;;2.90;;
2299;SDS011;1158;48.750;9.078;2023-02-21T02:03:37;6.77;;;3.20;;
2299;SDS011;1158;48.750;9.078;2023-02-21T02:06:22;7.37;;;3.80;;
2299;SDS011;1158;48.750;9.078;2023-02-21T02:09:15;5.97;;;3.60;;
2299;SDS011;1158;48.750;9.078;2023-02-21T02:12:10;6.27;;;3.17;;
2299;SDS011;1158;48.750;9.078;2023-02-21T02:17:56;6.83;;;3.53;;
2299;SDS011;1158;48.750;9.078;2023-02-21T02:20:46;6.50;;;3.53;;
2299;SDS011;1158;48.750;9.078;2023-02-21T02:23:56;5.33;;;2.77;;
2299;SDS011;1158;48.750;9.078;2023-02-21T02:26:53;5.90;;;3.37;;
2299;SDS011;1158;48.750;9.078;2023-02-21T02:29:47;6.87;;;3.10;;
2299;SDS011;1158;48.750;9.078;2023-02-21T02:35:36;4.83;;;2.80;;
2299;SDS011;1158;48.750;9.078;2023-02-21T02:38:11;6.53;;;3.50;;
2299;SDS011;1158;48.750;9.078;2023-02-21T02:40:49;6.60;;;3.33;;
2299;SDS011;1158;48.750;9.078;2023-02-21T02:43:25;5.80;;;3.13;;
2299;SDS011;1158;48.750;9.078;2023-02-21T02:45:57;6.73;;;3.00;;
2299;SDS011;1158;48.750;9.078;2023-02-21T02:48:29;6.63;;;3.27;;
2299;SDS011;1158;48.750;9.078;2023-02-21T02:51:03;5.50;;;3.20;;
2299;SDS011;1158;48.750;9.078;2023-02-21T02:53:33;5.53;;;3.07;;
2299;SDS011;1158;48.750;9.078;2023-02-21T02:56:00;4.10;;;3.00;;
2299;SDS011;1158;48.750;9.078;2023-02-21T02:58:29;7.27;;;3.40;;
2299;SDS011;1158;48.750;9.078;2023-02-21T03:01:03;7.70;;;3.37;;
2299;SDS011;1158;48.750;9.078;2023-02-21T03:03:45;7.23;;;3.43;;
2299;SDS011;1158;48.750;9.078;2023-02-21T03:06:26;5.70;;;2.90;;
2299;SDS011;1158;48.750;9.078;2023-02-21T03:09:01;6.60;;;2.80;;
2299;SDS011;1158;48.750;9.078;2023-02-21T03:11:33;4.03;;;2.80;;
2299;SDS011;1158;48.750;9.078;2023-02-21T03:14:08;6.90;;;3.43;;
2299;SDS011;1158;48.750;9.078;2023-02-21T03:16:40;6.20;;;3.23;;
2299;SDS011;1158;48.750;9.078;2023-02-21T03:19:12;9.03;;;3.73;;
2299;SDS011;1158;48.750;9.078;2023-02-21T03:21:44;5.73;;;2.80;;
2299;SDS011;1158;48.750;9.078;2023-02-21T03:24:14;7.67;;;3.50;;
2299;SDS011;1158;48.750;9.078;2023-02-21T03:26:44;7.70;;;3.80;;
2299;SDS011;1158;48.750;9.078;2023-02-21T03:29:13;4.17;;;3.00;;
2299;SDS011;1158;48.750;9.078;2023-02-21T03:31:42;5.30;;;2.87;;
2299;SDS011;1158;48.750;9.078;2023-02-21T03:34:11;5.73;;;3.20;;
2299;SDS011;1158;48.750;9.078;2023-02-21T03:36:38;6.97;;;3.67;;
2299;SDS011;1158;48.750;9.078;2023-02-21T03:39:06;7.63;;;3.23;;
2299;SDS011;1158;48.750;9.078;2023-02-21T03:41:33;6.30;;;3.23;;
2299;SDS011;1158;48.750;9.078;2023-02-21T03:44:00;4.50;;;3.10;;
2299;SDS011;1158;48.750;9.078;2023-02-21T03:46:26;6.87;;;3.47;;
2299;SDS011;1158;48.750;9.078;2023-02-21T03:48:53;8.50;;;3.50;;
2299;SDS011;1158;48.750;9.078;2023-02-21T03:51:20;8.87;;;3.80;;
2299;SDS011;1158;48.750;9.078;2023-02-21T03:53:47;7.43;;;3.43;;
2299;SDS011;1158;48.750;9.078;2023-02-21T03:56:15;5.90;;;3.30;;
2299;SDS011;1158;48.750;9.078;2023-02-21T03:58:42;6.30;;;3.77;;
2299;SDS011;1158;48.750;9.078;2023-02-21T04:01:09;7.50;;;3.47;;
2299;SDS011;1158;48.750;9.078;2023-02-21T04:03:35;7.23;;;3.53;;
2299;SDS011;1158;48.750;9.078;2023-02-21T04:06:02;6.80;;;4.20;;
2299;SDS011;1158;48.750;9.078;2023-02-21T04:08:29;8.43;;;3.80;;
2299;SDS011;1158;48.750;9.078;2023-02-21T04:10:56;5.50;;;3.20;;
2299;SDS011;1158;48.750;9.078;2023-02-21T04:13:24;6.30;;;3.53;;
2299;SDS011;1158;48.750;9.078;2023-02-21T04:15:51;6.20;;;3.30;;
2299;SDS011;1158;48.750;9.078;2023-02-21T04:18:18;5.40;;;3.00;;
2299;SDS011;1158;48.750;9.078;2023-02-21T04:20:44;6.37;;;3.40;;
2299;SDS011;1158;48.750;9.078;2023-02-21T04:23:11;5.13;;;3.10;;
2299;SDS011;1158;48.750;9.078;2023-02-21T04:25:40;6.13;;;3.50;;
2299;SDS011;1158;48.750;9.078;2023-02-21T04:28:07;6.17;;;3.20;;
2299;SDS011;1158;48.750;9.078;2023-02-21T04:30:35;9.47;;;3.77;;
2299;SDS011;1158;48.750;9.078;2023-02-21T04:33:02;6.20;;;3.10;;
2299;SDS011;1158;48.750;9.078;2023-02-21T04:35:29;6.20;;;3.60;;
2299;SDS011;1158;48.750;9.078;2023-02-21T04:37:56;9.57;;;4.00;;
2299;SDS011;1158;48.750;9.078;2023-02-21T04:40:22;7.83;;;3.20;;
2299;SDS011;1158;48.750;9.078;2023-02-21T04:42:49;5.20;;;3.00;;
2299;SDS011;1158;48.750;9.078;2023-02-21T04:45:16;5.70;;;3.50;;
2299;SDS011;1158;48.750;9.078;2023-02-21T04:47:44;9.13;;;4.03;;
2299;SDS011;1158;48.750;9.078;2023-02-21T04:50:11;7.90;;;3.37;;
2299;SDS011;1158;48.750;9.078;2023-02-21T04:52:38;6.63;;;3.53;;
2299;SDS011;1158;48.750;9.078;2023-02-21T04:55:05;6.63;;;3.60;;
2299;SDS011;1158;48.750;9.078;2023-02-21T04:57:32;4.60;;;2.97;;
2299;SDS011;1158;48.750;9.078;2023-02-21T04:59:59;7.70;;;3.43;;
2299;SDS011;1158;48.750;9.078;2023-02-21T05:02:26;7.50;;;3.30;;
2299;SDS011;1158;48.750;9.078;2023-02-21T05:04:54;4.30;;;3.10;;
2299;SDS011;1158;48.750;9.078;2023-02-21T05:07:21;7.13;;;3.30;;
2299;SDS011;1158;48.750;9.078;2023-02-21T05:09:47;5.20;;;2.90;;
2299;SDS011;1158;48.750;9.078;2023-02-21T05:12:14;7.23;;;3.73;;
2299;SDS011;1158;48.750;9.078;2023-02-21T05:14:41;5.27;;;3.50;;
2299;SDS011;1158;48.750;9.078;2023-02-21T05:17:08;9.33;;;3.70;;
2299;SDS011;1158;48.750;9.078;2023-02-21T05:19:35;6.50;;;3.53;;
2299;SDS011;1158;48.750;9.078;2023-02-21T05:22:03;7.10;;;3.47;;
2299;SDS011;1158;48.750;9.078;2023-02-21T05:24:31;9.60;;;3.40;;
2299;SDS011;1158;48.750;9.078;2023-02-21T05:26:58;8.80;;;3.17;;
2299;SDS011;1158;48.750;9.078;2023-02-21T05:29:25;5.63;;;3.50;;
2299;SDS011;1158;48.750;9.078;2023-02-21T05:31:52;8.20;;;4.23;;
2299;SDS011;1158;48.750;9.078;2023-02-21T05:34:19;7.17;;;3.53;;
2299;SDS011;1158;48.750;9.078;2023-02-21T05:36:45;7.43;;;3.17;;
2299;SDS011;1158;48.750;9.078;2023-02-21T05:39:13;6.80;;;3.53;;
2299;SDS011;1158;48.750;9.078;2023-02-21T05:41:45;5.00;;;3.50;;
2299;SDS011;1158;48.750;9.078;2023-02-21T05:44:12;5.90;;;3.20;;
2299;SDS011;1158;48.750;9.078;2023-02-21T05:46:39;6.87;;;3.37;;
2299;SDS011;1158;48.750;9.078;2023-02-21T05:49:05;6.60;;;3.43;;
2299;SDS011;1158;48.750;9.078;2023-02-21T05:51:33;10.67;;;4.17;;
2299;SDS011;1158;48.750;9.078;2023-02-21T05:54:00;4.23;;;3.13;;
2299;SDS011;1158;48.750;9.078;2023-02-21T05:56:28;11.40;;;4.20;;
2299;SDS011;1158;48.750;9.078;2023-02-21T05:58:55;5.37;;;3.57;;
2299;SDS011;1158;48.750;9.078;2023-02-21T06:01:22;7.60;;;4.10;;
2299;SDS011;1158;48.750;9.078;2023-02-21T06:03:49;9.57;;;4.07;;
2299;SDS011;1158;48.750;9.078;2023-02-21T06:06:15;5.20;;;3.67;;
2299;SDS011;1158;48.750;9.078;2023-02-21T06:08:43;6.90;;;3.10;;
2299;SDS011;1158;48.750;9.078;2023-02-21T06:11:11;5.90;;;3.77;;
2299;SDS011;1158;48.750;9.078;2023-02-21T06:13:40;6.10;;;4.10;;
2299;SDS011;1158;48.750;9.078;2023-02-21T06:16:07;7.77;;;3.73;;
2299;SDS011;1158;48.750;9.078;2023-02-21T06:18:33;4.87;;;3.10;;
2299;SDS011;1158;48.750;9.078;2023-02-21T06:21:00;7.67;;;3.73;;
2299;SDS011;1158;48.750;9.078;2023-02-21T06:23:27;4.77;;;3.20;;
2299;SDS011;1158;48.750;9.078;2023-02-21T06:25:53;7.47;;;3.90;;
2299;SDS011;1158;48.750;9.078;2023-02-21T06:28:20;8.00;;;3.67;;
2299;SDS011;1158;48.750;9.078;2023-02-21T06:30:48;7.77;;;3.77;;
2299;SDS011;1158;48.750;9.078;2023-02-21T06:33:15;5.03;;;3.50;;
2299;SDS011;1158;48.750;9.078;2023-02-21T06:35:41;10.70;;;4.17;;
2299;SDS011;1158;48.750;9.078;2023-02-21T06:38:08;6.07;;;4.00;;
2299;SDS011;1158;48.750;9.078;2023-02-21T06:40:35;8.40;;;4.40;;
2299;SDS011;1158;48.750;9.078;2023-02-21T06:43:02;8.50;;;3.67;;
2299;SDS011;1158;48.750;9.078;2023-02-21T06:45:29;6.17;;;3.90;;
2299;SDS011;1158;48.750;9.078;2023-02-21T06:47:57;6.73;;;3.90;;
2299;SDS011;1158;48.750;9.078;2023-02-21T06:50:23;8.13;;;4.30;;
2299;SDS011;1158;48.750;9.078;2023-02-21T06:52:50;8.50;;;3.87;;
2299;SDS011;1158;48.750;9.078;2023-02-21T06:55:18;10.33;;;3.83;;
2299;SDS011;1158;48.750;9.078;2023-02-21T06:57:46;5.50;;;3.80;;
2299;SDS011;1158;48.750;9.078;2023-02-21T07:00:13;10.67;;;4.30;;
2299;SDS011;1158;48.750;9.078;2023-02-21T07:02:41;7.63;;;4.47;;
2299;SDS011;1158;48.750;9.078;2023-02-21T07:05:10;7.50;;;3.90;;
2299;SDS011;1158;48.750;9.078;2023-02-21T07:07:37;9.20;;;4.60;;
2299;SDS011;1158;48.750;9.078;2023-02-21T07:10:04;8.10;;;3.90;;
2299;SDS011;1158;48.750;9.078;2023-02-21T07:12:31;10.30;;;4.07;;
2299;SDS011;1158;48.750;9.078;2023-02-21T07:14:58;9.23;;;4.50;;
2299;SDS011;1158;48.750;9.078;2023-02-21T07:17:24;7.57;;;4.63;;
2299;SDS011;1158;48.750;9.078;2023-02-21T07:19:51;5.77;;;3.90;;
2299;SDS011;1158;48.750;9.078;2023-02-21T07:22:20;7.00;;;3.90;;
2299;SDS011;1158;48.750;9.078;2023-02-21T07:24:50;12.07;;;3.47;;
2299;SDS011;1158;48.750;9.078;2023-02-21T07:27:17;6.30;;;3.83;;
2299;SDS011;1158;48.750;9.078;2023-02-21T07:29:45;7.97;;;4.27;;
2299;SDS011;1158;48.750;9.078;2023-02-21T07:32:12;8.60;;;3.57;;
2299;SDS011;1158;48.750;9.078;2023-02-21T07:34:38;6.23;;;3.50;;
2299;SDS011;1158;48.750;9.078;2023-02-21T07:37:05;7.40;;;3.30;;
2299;SDS011;1158;48.750;9.078;2023-02-21T07:39:33;5.17;;;3.10;;
2299;SDS011;1158;48.750;9.078;2023-02-21T07:42:00;3.60;;;2.70;;
2299;SDS011;1158;48.750;9.078;2023-02-21T07:44:27;7.47;;;3.60;;
2299;SDS011;1158;48.750;9.078;2023-02-21T07:46:54;4.90;;;3.13;;
2299;SDS011;1158;48.750;9.078;2023-02-21T07:49:20;5.40;;;3.70;;
2299;SDS011;1158;48.750;9.078;2023-02-21T07:51:48;6.70;;;3.40;;
2299;SDS011;1158;48.750;9.078;2023-02-21T07:54:15;7.30;;;3.57;;
2299;SDS011;1158;48.750;9.078;2023-02-21T07:56:44;5.73;;;3.30;;
2299;SDS011;1158;48.750;9.078;2023-02-21T07:59:12;4.43;;;3.40;;
2299;SDS011;1158;48.750;9.078;2023-02-21T08:01:39;4.73;;;2.63;;
2299;SDS011;1158;48.750;9.078;2023-02-21T08:04:06;4.50;;;2.60;;
2299;SDS011;1158;48.750;9.078;2023-02-21T08:06:33;8.00;;;2.70;;
2299;SDS011;1158;48.750;9.078;2023-02-21T08:09:00;6.10;;;3.37;;
2299;SDS011;1158;48.750;9.078;2023-02-21T08:11:27;6.33;;;3.07;;
2299;SDS011;1158;48.750;9.078;2023-02-21T08:13:55;6.80;;;2.77;;
2299;SDS011;1158;48.750;9.078;2023-02-21T08:16:22;4.37;;;2.60;;
2299;SDS011;1158;48.750;9.078;2023-02-21T08:18:49;8.10;;;3.40;;
2299;SDS011;1158;48.750;9.078;2023-02-21T08:21:16;5.13;;;2.73;;
2299;SDS011;1158;48.750;9.078;2023-02-21T08:23:42;7.20;;;3.03;;
2299;SDS011;1158;48.750;9.078;2023-02-21T08:26:09;4.63;;;2.90;;
2299;SDS011;1158;48.750;9.078;2023-02-21T08:28:36;4.17;;;2.73;;
2299;SDS011;1158;48.750;9.078;2023-02-21T08:31:05;6.93;;;2.83;;
2299;SDS011;1158;48.750;9.078;2023-02-21T08:33:32;3.43;;;2.40;;
2299;SDS011;1158;48.750;9.078;2023-02-21T08:35:59;5.93;;;3.37;;
2299;SDS011;1158;48.750;9.078;2023-02-21T08:38:25;7.50;;;4.10;;
2299;SDS011;1158;48.750;9.078;2023-02-21T08:40:52;7.80;;;3.13;;
2299;SDS011;1158;48.750;9.078;2023-02-21T08:43:19;7.13;;;3.10;;
2299;SDS011;1158;48.750;9.078;2023-02-21T08:45:45;5.03;;;2.50;;
2299;SDS011;1158;48.750;9.078;2023-02-21T08:48:13;4.00;;;2.93;;
2299;SDS011;1158;48.750;9.078;2023-02-21T08:50:40;4.23;;;2.83;;
2299;SDS011;1158;48.750;9.078;2023-02-21T08:53:07;3.93;;;2.70;;
2299;SDS011;1158;48.750;9.078;2023-02-21T08:55:34;4.10;;;2.70;;
2299;SDS011;1158;48.750;9.078;2023-02-21T08:58:01;4.13;;;2.40;;
2299;SDS011;1158;48.750;9.078;2023-02-21T09:00:28;4.40;;;2.70;;
2299;SDS011;1158;48.750;9.078;2023-02-21T09:02:55;6.37;;;2.70;;
2299;SDS011;1158;48.750;9.078;2023-02-21T09:05:26;3.30;;;2.13;;
2299;SDS011;1158;48.750;9.078;2023-02-21T09:07:53;5.00;;;2.13;;
2299;SDS011;1158;48.750;9.078;2023-02-21T09:10:23;3.97;;;2.13;;
2299;SDS011;1158;48.750;9.078;2023-02-21T09:12:50;3.90;;;2.20;;
2299;SDS011;1158;48.750;9.078;2023-02-21T09:15:16;3.17;;;2.20;;
2299;SDS011;1158;48.750;9.078;2023-02-21T09:17:43;3.60;;;1.90;;
2299;SDS011;1158;48.750;9.078;2023-02-21T09:20:12;3.67;;;2.20;;
2299;SDS011;1158;48.750;9.078;2023-02-21T09:22:43;4.20;;;2.47;;
2299;SDS011;1158;48.750;9.078;2023-02-21T09:25:10;5.73;;;2.03;;
2299;SDS011;1158;48.750;9.078;2023-02-21T09:27:37;5.00;;;1.60;;
2299;SDS011;1158;48.750;9.078;2023-02-21T09:30:04;3.20;;;1.80;;
2299;SDS011;1158;48.750;9.078;2023-02-21T09:32:32;4.47;;;1.97;;
2299;SDS011;1158;48.750;9.078;2023-02-21T09:34:59;3.30;;;2.00;;
2299;SDS011;1158;48.750;9.078;2023-02-21T09:37:26;3.93;;;1.83;;
2299;SDS011;1158;48.750;9.078;2023-02-21T09:39:54;3.67;;;1.87;;
2299;SDS011;1158;48.750;9.078;2023-02-21T09:42:21;2.50;;;1.63;;
2299;SDS011;1158;48.750;9.078;2023-02-21T09:44:53;2.10;;;1.40;;
2299;SDS011;1158;48.750;9.078;2023-02-21T09:47:23;4.03;;;1.40;;
2299;SDS011;1158;48.750;9.078;2023-02-21T09:49:54;5.50;;;1.40;;
2299;SDS011;1158;48.750;9.078;2023-02-21T09:52:29;2.60;;;1.30;;
2299;SDS011;1158;48.750;9.078;2023-02-21T09:54:59;3.93;;;1.33;;
2299;SDS011;1158;48.750;9.078;2023-02-21T09:57:30;3.17;;;1.30;;
2299;SDS011;1158;48.750;9.078;2023-02-21T09:59:56;1.80;;;1.00;;
2299;SDS011;1158;48.750;9.078;2023-02-21T10:02:29;2.53;;;1.30;;
2299;SDS011;1158;48.750;9.078;2023-02-21T10:05:06;2.07;;;1.07;;
2299;SDS011;1158;48.750;9.078;2023-02-21T10:07:44;3.07;;;1.30;;
2299;SDS011;1158;48.750;9.078;2023-02-21T10:10:17;3.17;;;1.30;;
2299;SDS011;1158;48.750;9.078;2023-02-21T10:12:55;4.37;;;1.37;;
2299;SDS011;1158;48.750;9.078;2023-02-21T10:15:36;2.77;;;1.20;;
2299;SDS011;1158;48.750;9.078;2023-02-21T10:18:14;3.10;;;1.30;;
2299;SDS011;1158;48.750;9.078;2023-02-21T10:20:48;3.50;;;1.30;;
2299;SDS011;1158;48.750;9.078;2023-02-21T10:23:20;2.83;;;1.10;;
2299;SDS011;1158;48.750;9.078;2023-02-21T10:25:53;5.30;;;1.30;;
2299;SDS011;1158;48.750;9.078;2023-02-21T10:28:24;3.90;;;1.63;;
2299;SDS011;1158;48.750;9.078;2023-02-21T10:30:52;3.77;;;1.53;;
2299;SDS011;1158;48.750;9.078;2023-02-21T10:33:23;3.33;;;1.30;;
2299;SDS011;1158;48.750;9.078;2023-02-21T10:35:50;3.50;;;1.47;;
2299;SDS011;1158;48.750;9.078;2023-02-21T10:38:19;3.57;;;1.23;;
2299;SDS011;1158;48.750;9.078;2023-02-21T10:40:50;3.33;;;1.30;;
2299;SDS011;1158;48.750;9.078;2023-02-21T10:43:20;2.07;;;1.33;;
2299;SDS011;1158;48.750;9.078;2023-02-21T10:45:54;3.03;;;1.30;;
2299;SDS011;1158;48.750;9.078;2023-02-21T10:48:26;3.67;;;1.43;;
2299;SDS011;1158;48.750;9.078;2023-02-21T10:51:03;3.20;;;1.57;;
2299;SDS011;1158;48.750;9.078;2023-02-21T10:53:33;4.33;;;1.43;;
2299;SDS011;1158;48.750;9.078;2023-02-21T10:56:14;2.10;;;1.30;;
2299;SDS011;1158;48.750;9.078;2023-02-21T10:58:49;2.10;;;1.10;;
2299;SDS011;1158;48.750;9.078;2023-02-21T11:01:19;5.60;;;1.40;;
2299;SDS011;1158;48.750;9.078;2023-02-21T11:03:50;3.10;;;1.40;;
2299;SDS011;1158;48.750;9.078;2023-02-21T11:06:21;3.07;;;1.10;;
2299;SDS011;1158;48.750;9.078;2023-02-21T11:08:51;3.23;;;1.53;;
2299;SDS011;1158;48.750;9.078;2023-02-21T11:11:31;4.50;;;1.47;;
2299;SDS011;1158;48.750;9.078;2023-02-21T11:17:08;4.70;;;1.50;;
2299;SDS011;1158;48.750;9.078;2023-02-21T11:19:42;2.03;;;0.93;;
2299;SDS011;1158;48.750;9.078;2023-02-21T11:22:10;2.87;;;1.17;;
2299;SDS011;1158;48.750;9.078;2023-02-21T11:24:48;5.70;;;1.50;;
2299;SDS011;1158;48.750;9.078;2023-02-21T11:27:24;5.47;;;1.87;;
2299;SDS011;1158;48.750;9.078;2023-02-21T11:29:53;3.80;;;1.70;;
2299;SDS011;1158;48.750;9.078;2023-02-21T11:32:22;3.90;;;1.73;;
2299;SDS011;1158;48.750;9.078;2023-02-21T11:34:59;7.20;;;2.77;;
2299;SDS011;1158;48.750;9.078;2023-02-21T11:37:27;6.03;;;2.03;;
2299;SDS011;1158;48.750;9.078;2023-02-21T11:39:56;3.70;;;1.90;;
2299;SDS011;1158;48.750;9.078;2023-02-21T11:42:27;3.37;;;1.70;;
2299;SDS011;1158;48.750;9.078;2023-02-21T11:45:04;2.43;;;1.50;;
2299;SDS011;1158;48.750;9.078;2023-02-21T11:47:42;3.83;;;1.77;;
2299;SDS011;1158;48.750;9.078;2023-02-21T11:50:14;3.47;;;1.60;;
2299;SDS011;1158;48.750;9.078;2023-02-21T11:52:48;8.33;;;1.70;;
2299;SDS011;1158;48.750;9.078;2023-02-21T11:55:20;6.47;;;2.20;;
2299;SDS011;1158;48.750;9.078;2023-02-21T11:57:51;5.70;;;2.57;;
2299;SDS011;1158;48.750;9.078;2023-02-21T12:00:27;4.33;;;2.43;;
2299;SDS011;1158;48.750;9.078;2023-02-21T12:03:05;6.47;;;3.57;;
2299;SDS011;1158;48.750;9.078;2023-02-21T12:05:48;4.60;;;2.77;;
2299;SDS011;1158;48.750;9.078;2023-02-21T12:08:26;5.47;;;2.83;;
2299;SDS011;1158;48.750;9.078;2023-02-21T12:11:05;8.47;;;3.00;;
2299;SDS011;1158;48.750;9.078;2023-02-21T12:13:44;5.40;;;2.50;;
2299;SDS011;1158;48.750;9.078;2023-02-21T12:16:21;7.33;;;3.50;;
2299;SDS011;1158;48.750;9.078;2023-02-21T12:19:01;6.90;;;3.80;;
2299;SDS011;1158;48.750;9.078;2023-02-21T12:21:45;4.93;;;2.80;;
2299;SDS011;1158;48.750;9.078;2023-02-21T12:24:29;6.10;;;3.07;;
2299;SDS011;1158;48.750;9.078;2023-02-21T12:27:11;8.20;;;3.60;;
2299;SDS011;1158;48.750;9.078;2023-02-21T12:29:48;7.17;;;3.97;;
2299;SDS011;1158;48.750;9.078;2023-02-21T12:32:32;9.23;;;2.90;;
2299;SDS011;1158;48.750;9.078;2023-02-21T12:35:24;10.80;;;3.20;;
2299;SDS011;1158;48.750;9.078;2023-02-21T12:38:05;8.10;;;2.90;;
2299;SDS011;1158;48.750;9.078;2023-02-21T12:40:37;5.07;;;3.30;;
2299;SDS011;1158;48.750;9.078;2023-02-21T12:46:05;4.90;;;2.67;;
2299;SDS011;1158;48.750;9.078;2023-02-21T12:48:39;7.40;;;2.70;;
2299;SDS011;1158;48.750;9.078;2023-02-21T12:51:10;6.83;;;3.03;;
2299;SDS011;1158;48.750;9.078;2023-02-21T12:53:42;4.30;;;2.40;;
2299;SDS011;1158;48.750;9.078;2023-02-21T12:56:14;4.20;;;2.30;;
2299;SDS011;1158;48.750;9.078;2023-02-21T12:58:45;9.20;;;2.80;;
2299;SDS011;1158;48.750;9.078;2023-02-21T13:01:20;8.20;;;2.70;;
2299;SDS011;1158;48.750;9.078;2023-02-21T13:03:52;6.63;;;2.87;;
2299;SDS011;1158;48.750;9.078;2023-02-21T13:06:26;3.40;;;2.30;;
2299;SDS011;1158;48.750;9.078;2023-02-21T13:08:57;5.90;;;2.87;;
2299;SDS011;1158;48.750;9.078;2023-02-21T13:11:34;6.30;;;2.43;;
2299;SDS011;1158;48.750;9.078;2023-02-21T13:14:07;3.80;;;2.30;;
2299;SDS011;1158;48.750;9.078;2023-02-21T13:16:37;5.10;;;2.37;;
2299;SDS011;1158;48.750;9.078;2023-02-21T13:19:05;4.83;;;2.10;;
2299;SDS011;1158;48.750;9.078;2023-02-21T13:21:40;4.83;;;2.00;;
2299;SDS011;1158;48.750;9.078;2023-02-21T13:24:22;4.47;;;2.00;;
2299;SDS011;1158;48.750;9.078;2023-02-21T13:26:59;4.13;;;1.80;;
2299;SDS011;1158;48.750;9.078;2023-02-21T13:29:47;4.50;;;2.03;;
2299;SDS011;1158;48.750;9.078;2023-02-21T13:32:16;5.10;;;1.90;;
2299;SDS011;1158;48.750;9.078;2023-02-21T13:34:45;5.20;;;2.17;;
2299;SDS011;1158;48.750;9.078;2023-02-21T13:37:18;3.60;;;1.90;;
2299;SDS011;1158;48.750;9.078;2023-02-21T13:39:48;5.67;;;2.13;;
2299;SDS011;1158;48.750;9.078;2023-02-21T13:42:18;3.67;;;1.60;;
2299;SDS011;1158;48.750;9.078;2023-02-21T13:44:48;9.60;;;2.30;;
2299;SDS011;1158;48.750;9.078;2023-02-21T13:47:19;3.80;;;1.87;;
2299;SDS011;1158;48.750;9.078;2023-02-21T13:49:48;3.50;;;1.63;;
2299;SDS011;1158;48.750;9.078;2023-02-21T13:52:24;2.90;;;1.80;;
2299;SDS011;1158;48.750;9.078;2023-02-21T13:58:21;3.00;;;1.80;;
2299;SDS011;1158;48.750;9.078;2023-02-21T14:01:11;4.60;;;1.90;;
2299;SDS011;1158;48.750;9.078;2023-02-21T14:03:42;2.97;;;1.50;;
2299;SDS011;1158;48.750;9.078;2023-02-21T14:08:59;3.00;;;1.37;;
2299;SDS011;1158;48.750;9.078;2023-02-21T14:11:33;2.20;;;1.40;;
2299;SDS011;1158;48.750;9.078;2023-02-21T14:14:03;4.63;;;1.70;;
2299;SDS011;1158;48.750;9.078;2023-02-21T14:16:45;5.57;;;1.43;;
2299;SDS011;1158;48.750;9.078;2023-02-21T14:19:18;2.20;;;1.20;;
2299;SDS011;1158;48.750;9.078;2023-02-21T14:21:50;2.63;;;1.40;;
2299;SDS011;1158;48.750;9.078;2023-02-21T14:24:24;2.13;;;1.20;;
2299;SDS011;1158;48.750;9.078;2023-02-21T14:26:54;3.83;;;1.57;;
2299;SDS011;1158;48.750;9.078;2023-02-21T14:29:34;4.23;;;1.47;;
2299;SDS011;1158;48.750;9.078;2023-02-21T14:35:00;5.40;;;1.50;;
2299;SDS011;1158;48.750;9.078;2023-02-21T14:37:39;3.60;;;1.63;;
2299;SDS011;1158;48.750;9.078;2023-02-21T14:40:15;6.17;;;1.33;;
2299;SDS011;1158;48.750;9.078;2023-02-21T14:42:52;4.33;;;1.63;;
2299;SDS011;1158;48.750;9.078;2023-02-21T14:45:35;3.50;;;1.60;;
2299;SDS011;1158;48.750;9.078;2023-02-21T14:48:17;3.60;;;1.50;;
2299;SDS011;1158;48.750;9.078;2023-02-21T14:51:09;3.83;;;1.43;;
2299;SDS011;1158;48.750;9.078;2023-02-21T14:54:15;3.47;;;1.37;;
2299;SDS011;1158;48.750;9.078;2023-02-21T14:57:12;2.27;;;1.40;;
2299;SDS011;1158;48.750;9.078;2023-02-21T14:59:54;2.10;;;1.10;;
2299;SDS011;1158;48.750;9.078;2023-02-21T15:02:33;2.90;;;1.40;;
2299;SDS011;1158;48.750;9.078;2023-02-21T15:05:06;4.40;;;1.37;;
2299;SDS011;1158;48.750;9.078;2023-02-21T15:07:44;2.57;;;1.03;;
2299;SDS011;1158;48.750;9.078;2023-02-21T15:10:22;2.70;;;1.20;;
2299;SDS011;1158;48.750;9.078;2023-02-21T15:12:51;2.43;;;1.00;;
2299;SDS011;1158;48.750;9.078;2023-02-21T15:15:21;3.27;;;1.17;;
2299;SDS011;1158;48.750;9.078;2023-02-21T15:17:55;3.27;;;1.30;;
2299;SDS011;1158;48.750;9.078;2023-02-21T15:20:28;3.40;;;1.10;;
2299;SDS011;1158;48.750;9.078;2023-02-21T15:23:00;4.07;;;1.30;;
2299;SDS011;1158;48.750;9.078;2023-02-21T15:25:32;4.03;;;1.50;;
2299;SDS011;1158;48.750;9.078;2023-02-21T15:28:03;5.47;;;1.90;;
2299;SDS011;1158;48.750;9.078;2023-02-21T15:30:33;3.20;;;1.83;;
2299;SDS011;1158;48.750;9.078;2023-02-21T15:33:06;3.47;;;2.00;;
2299;SDS011;1158;48.750;9.078;2023-02-21T15:35:38;3.50;;;1.93;;
2299;SDS011;1158;48.750;9.078;2023-02-21T15:38:13;3.10;;;1.90;;
2299;SDS011;1158;48.750;9.078;2023-02-21T15:40:42;3.83;;;2.20;;
2299;SDS011;1158;48.750;9.078;2023-02-21T15:43:11;4.70;;;1.97;;
2299;SDS011;1158;48.750;9.078;2023-02-21T15:45:52;3.87;;;2.00;;
2299;SDS011;1158;48.750;9.078;2023-02-21T15:48:22;4.40;;;2.27;;
2299;SDS011;1158;48.750;9.078;2023-02-21T15:50:49;4.90;;;2.40;;
2299;SDS011;1158;48.750;9.078;2023-02-21T15:53:18;10.43;;;3.00;;
2299;SDS011;1158;48.750;9.078;2023-02-21T15:55:46;3.07;;;2.00;;
2299;SDS011;1158;48.750;9.078;2023-02-21T15:58:15;5.40;;;2.40;;
2299;SDS011;1158;48.750;9.078;2023-02-21T16:00:44;4.43;;;2.50;;
2299;SDS011;1158;48.750;9.078;2023-02-21T16:03:28;5.10;;;2.07;;
2299;SDS011;1158;48.750;9.078;2023-02-21T16:06:11;7.80;;;2.33;;
2299;SDS011;1158;48.750;9.078;2023-02-21T16:08:50;4.53;;;2.20;;
2299;SDS011;1158;48.750;9.078;2023-02-21T16:11:23;5.63;;;2.67;;
2299;SDS011;1158;48.750;9.078;2023-02-21T16:13:52;6.00;;;2.50;;